sensor_id;sensor_type;location;lat;lon;timestamp;P1;durP1;ratioP1;P2;durP2;ratioP2
45962;SDS011;31669;49.892;20.818;2022-08-19T00:02:59;15.00;;;6.00;;
45962;SDS011;31669;49.892;20.818;2022-08-19T00:07:59;5.88;;;4.47;;
45962;SDS011;31669;49.892;20.818;2022-08-19T00:13:00;13.93;;;5.70;;
45962;SDS011;31669;49.892;20.818;2022-08-19T00:18:00;11.02;;;5.03;;
45962;SDS011;31669;49.892;20.818;2022-08-19T00:23:01;8.18;;;4.75;;
45962;SDS011;31669;49.892;20.818;2022-08-19T00:28:04;11.52;;;5.97;;
45962;SDS011;31669;49.892;20.818;2022-08-19T00:33:05;11.23;;;4.82;;
45962;SDS011;31669;49.892;20.818;2022-08-19T00:38:05;9.95;;;5.05;;
45962;SDS011;31669;49.892;20.818;2022-08-19T00:43:08;11.07;;;6.22;;
45962;SDS011;31669;49.892;20.818;2022-08-19T00:48:09;7.68;;;5.20;;
45962;SDS011;31669;49.892;20.818;2022-08-19T00:53:10;10.38;;;5.38;;
45962;SDS011;31669;49.892;20.818;2022-08-19T00:58:13;9.77;;;5.78;;
45962;SDS011;31669;49.892;20.818;2022-08-19T01:03:18;10.63;;;5.72;;
45962;SDS011;31669;49.892;20.818;2022-08-19T01:08:19;11.20;;;5.50;;
45962;SDS011;31669;49.892;20.818;2022-08-19T01:13:22;9.00;;;4.63;;
45962;SDS011;31669;49.892;20.818;2022-08-19T01:18:24;11.77;;;5.57;;
45962;SDS011;31669;49.892;20.818;2022-08-19T01:23:26;8.40;;;5.32;;
45962;SDS011;31669;49.892;20.818;2022-08-19T01:28:43;8.88;;;5.32;;
45962;SDS011;31669;49.892;20.818;2022-08-19T01:33:44;11.52;;;5.38;;
45962;SDS011;31669;49.892;20.818;2022-08-19T01:43:46;8.32;;;5.55;;
45962;SDS011;31669;49.892;20.818;2022-08-19T01:48:46;7.77;;;4.90;;
45962;SDS011;31669;49.892;20.818;2022-08-19T01:53:48;7.70;;;4.88;;
45962;SDS011;31669;49.892;20.818;2022-08-19T01:58:50;7.75;;;4.57;;
45962;SDS011;31669;49.892;20.818;2022-08-19T02:03:51;8.35;;;4.47;;
45962;SDS011;31669;49.892;20.818;2022-08-19T02:08:54;7.47;;;4.20;;
45962;SDS011;31669;49.892;20.818;2022-08-19T02:13:54;8.60;;;4.90;;
45962;SDS011;31669;49.892;20.818;2022-08-19T02:18:55;7.75;;;5.00;;
45962;SDS011;31669;49.892;20.818;2022-08-19T02:23:56;9.02;;;5.38;;
45962;SDS011;31669;49.892;20.818;2022-08-19T02:28:57;8.48;;;5.40;;
45962;SDS011;31669;49.892;20.818;2022-08-19T02:33:57;9.02;;;4.75;;
45962;SDS011;31669;49.892;20.818;2022-08-19T02:38:58;10.27;;;4.88;;
45962;SDS011;31669;49.892;20.818;2022-08-19T02:43:59;9.23;;;4.60;;
45962;SDS011;31669;49.892;20.818;2022-08-19T02:49:03;8.55;;;5.85;;
45962;SDS011;31669;49.892;20.818;2022-08-19T02:54:04;11.52;;;5.40;;
45962;SDS011;31669;49.892;20.818;2022-08-19T03:04:10;7.80;;;4.55;;
45962;SDS011;31669;49.892;20.818;2022-08-19T03:09:10;8.95;;;5.30;;
45962;SDS011;31669;49.892;20.818;2022-08-19T03:14:11;11.17;;;5.60;;
45962;SDS011;31669;49.892;20.818;2022-08-19T03:19:13;8.02;;;4.80;;
45962;SDS011;31669;49.892;20.818;2022-08-19T03:24:15;10.88;;;5.90;;
45962;SDS011;31669;49.892;20.818;2022-08-19T03:29:16;6.90;;;4.82;;
45962;SDS011;31669;49.892;20.818;2022-08-19T03:34:26;7.18;;;4.80;;
45962;SDS011;31669;49.892;20.818;2022-08-19T03:39:27;9.90;;;5.30;;
45962;SDS011;31669;49.892;20.818;2022-08-19T03:44:29;13.98;;;7.05;;
45962;SDS011;31669;49.892;20.818;2022-08-19T03:49:30;13.70;;;6.32;;
45962;SDS011;31669;49.892;20.818;2022-08-19T03:54:31;10.35;;;4.53;;
45962;SDS011;31669;49.892;20.818;2022-08-19T03:59:33;8.55;;;4.72;;
45962;SDS011;31669;49.892;20.818;2022-08-19T04:04:34;10.63;;;4.75;;
45962;SDS011;31669;49.892;20.818;2022-08-19T04:09:35;5.93;;;4.43;;
45962;SDS011;31669;49.892;20.818;2022-08-19T04:14:36;10.63;;;5.93;;
45962;SDS011;31669;49.892;20.818;2022-08-19T04:19:37;10.90;;;4.82;;
45962;SDS011;31669;49.892;20.818;2022-08-19T04:24:38;14.43;;;6.78;;
45962;SDS011;31669;49.892;20.818;2022-08-19T04:29:39;20.35;;;8.07;;
45962;SDS011;31669;49.892;20.818;2022-08-19T04:39:42;13.63;;;6.07;;
45962;SDS011;31669;49.892;20.818;2022-08-19T04:45:02;6.47;;;4.68;;
45962;SDS011;31669;49.892;20.818;2022-08-19T04:50:04;13.70;;;5.68;;
45962;SDS011;31669;49.892;20.818;2022-08-19T04:55:05;7.28;;;4.75;;
45962;SDS011;31669;49.892;20.818;2022-08-19T05:00:07;7.38;;;4.45;;
45962;SDS011;31669;49.892;20.818;2022-08-19T05:05:08;9.88;;;5.25;;
45962;SDS011;31669;49.892;20.818;2022-08-19T05:10:09;5.85;;;3.90;;
45962;SDS011;31669;49.892;20.818;2022-08-19T05:15:10;9.45;;;4.50;;
45962;SDS011;31669;49.892;20.818;2022-08-19T05:20:10;10.85;;;4.80;;
45962;SDS011;31669;49.892;20.818;2022-08-19T05:25:29;4.38;;;3.33;;
45962;SDS011;31669;49.892;20.818;2022-08-19T05:30:30;10.38;;;4.63;;
45962;SDS011;31669;49.892;20.818;2022-08-19T05:35:30;7.33;;;4.00;;
45962;SDS011;31669;49.892;20.818;2022-08-19T05:40:31;8.10;;;4.78;;
45962;SDS011;31669;49.892;20.818;2022-08-19T05:45:38;7.43;;;4.53;;
45962;SDS011;31669;49.892;20.818;2022-08-19T05:50:39;6.40;;;4.63;;
45962;SDS011;31669;49.892;20.818;2022-08-19T05:55:40;6.38;;;3.97;;
45962;SDS011;31669;49.892;20.818;2022-08-19T06:00:42;8.60;;;4.38;;
45962;SDS011;31669;49.892;20.818;2022-08-19T06:05:42;7.75;;;4.93;;
45962;SDS011;31669;49.892;20.818;2022-08-19T06:10:43;11.70;;;5.05;;
45962;SDS011;31669;49.892;20.818;2022-08-19T06:15:43;5.60;;;4.03;;
45962;SDS011;31669;49.892;20.818;2022-08-19T06:20:44;7.70;;;3.45;;
45962;SDS011;31669;49.892;20.818;2022-08-19T06:25:45;5.47;;;4.00;;
45962;SDS011;31669;49.892;20.818;2022-08-19T06:30:45;7.38;;;3.85;;
45962;SDS011;31669;49.892;20.818;2022-08-19T06:35:46;7.35;;;4.18;;
45962;SDS011;31669;49.892;20.818;2022-08-19T06:40:47;5.27;;;3.83;;
45962;SDS011;31669;49.892;20.818;2022-08-19T06:45:47;7.25;;;3.70;;
45962;SDS011;31669;49.892;20.818;2022-08-19T06:50:48;5.80;;;3.77;;
45962;SDS011;31669;49.892;20.818;2022-08-19T06:55:50;5.35;;;4.30;;
45962;SDS011;31669;49.892;20.818;2022-08-19T07:00:58;5.43;;;4.45;;
45962;SDS011;31669;49.892;20.818;2022-08-19T07:06:05;6.45;;;3.38;;
45962;SDS011;31669;49.892;20.818;2022-08-19T07:11:06;7.70;;;3.90;;
45962;SDS011;31669;49.892;20.818;2022-08-19T07:21:08;5.57;;;3.35;;
45962;SDS011;31669;49.892;20.818;2022-08-19T07:26:14;4.97;;;3.33;;
45962;SDS011;31669;49.892;20.818;2022-08-19T07:31:17;8.65;;;3.38;;
45962;SDS011;31669;49.892;20.818;2022-08-19T07:36:22;8.38;;;4.15;;
45962;SDS011;31669;49.892;20.818;2022-08-19T07:41:24;6.32;;;4.10;;
45962;SDS011;31669;49.892;20.818;2022-08-19T07:46:26;6.80;;;4.40;;
45962;SDS011;31669;49.892;20.818;2022-08-19T07:51:27;4.90;;;3.03;;
45962;SDS011;31669;49.892;20.818;2022-08-19T07:56:28;6.82;;;4.15;;
45962;SDS011;31669;49.892;20.818;2022-08-19T08:01:29;7.15;;;3.95;;
45962;SDS011;31669;49.892;20.818;2022-08-19T08:06:29;5.57;;;3.25;;
45962;SDS011;31669;49.892;20.818;2022-08-19T08:11:50;5.85;;;4.00;;
45962;SDS011;31669;49.892;20.818;2022-08-19T08:16:51;5.95;;;3.65;;
45962;SDS011;31669;49.892;20.818;2022-08-19T08:21:53;4.85;;;3.17;;
45962;SDS011;31669;49.892;20.818;2022-08-19T08:26:54;8.95;;;4.25;;
45962;SDS011;31669;49.892;20.818;2022-08-19T08:31:56;7.15;;;4.07;;
45962;SDS011;31669;49.892;20.818;2022-08-19T08:36:58;6.32;;;3.17;;
45962;SDS011;31669;49.892;20.818;2022-08-19T08:47:01;5.75;;;3.47;;
45962;SDS011;31669;49.892;20.818;2022-08-19T08:52:04;6.97;;;3.83;;
45962;SDS011;31669;49.892;20.818;2022-08-19T08:57:19;5.80;;;3.70;;
45962;SDS011;31669;49.892;20.818;2022-08-19T09:02:23;5.65;;;3.60;;
45962;SDS011;31669;49.892;20.818;2022-08-19T09:17:34;6.70;;;3.15;;
45962;SDS011;31669;49.892;20.818;2022-08-19T09:22:36;8.82;;;3.72;;
45962;SDS011;31669;49.892;20.818;2022-08-19T09:27:38;8.05;;;4.18;;
45962;SDS011;31669;49.892;20.818;2022-08-19T09:32:39;6.53;;;3.78;;
45962;SDS011;31669;49.892;20.818;2022-08-19T09:37:42;10.20;;;3.40;;
45962;SDS011;31669;49.892;20.818;2022-08-19T09:42:44;7.35;;;3.63;;
45962;SDS011;31669;49.892;20.818;2022-08-19T09:47:48;6.05;;;3.47;;
45962;SDS011;31669;49.892;20.818;2022-08-19T09:52:49;7.03;;;3.83;;
45962;SDS011;31669;49.892;20.818;2022-08-19T09:57:50;5.28;;;2.58;;
45962;SDS011;31669;49.892;20.818;2022-08-19T10:02:53;6.53;;;3.65;;
45962;SDS011;31669;49.892;20.818;2022-08-19T10:12:55;5.55;;;2.53;;
45962;SDS011;31669;49.892;20.818;2022-08-19T10:17:56;3.65;;;2.97;;
45962;SDS011;31669;49.892;20.818;2022-08-19T10:27:58;3.25;;;2.25;;
45962;SDS011;31669;49.892;20.818;2022-08-19T10:37:59;5.13;;;2.78;;
45962;SDS011;31669;49.892;20.818;2022-08-19T10:43:01;4.30;;;3.08;;
45962;SDS011;31669;49.892;20.818;2022-08-19T10:53:03;4.40;;;2.60;;
45962;SDS011;31669;49.892;20.818;2022-08-19T10:58:09;3.83;;;2.63;;
45962;SDS011;31669;49.892;20.818;2022-08-19T11:03:10;4.15;;;2.65;;
45962;SDS011;31669;49.892;20.818;2022-08-19T11:13:12;3.75;;;2.85;;
45962;SDS011;31669;49.892;20.818;2022-08-19T11:23:13;4.93;;;3.03;;
45962;SDS011;31669;49.892;20.818;2022-08-19T11:33:14;3.88;;;2.65;;
45962;SDS011;31669;49.892;20.818;2022-08-19T11:43:15;6.30;;;3.20;;
45962;SDS011;31669;49.892;20.818;2022-08-19T11:53:17;4.28;;;2.85;;
45962;SDS011;31669;49.892;20.818;2022-08-19T11:58:19;4.22;;;2.70;;
45962;SDS011;31669;49.892;20.818;2022-08-19T12:08:20;8.48;;;3.60;;
45962;SDS011;31669;49.892;20.818;2022-08-19T12:18:21;7.35;;;3.40;;
45962;SDS011;31669;49.892;20.818;2022-08-19T12:23:22;4.18;;;3.08;;
45962;SDS011;31669;49.892;20.818;2022-08-19T12:33:24;4.35;;;2.88;;
45962;SDS011;31669;49.892;20.818;2022-08-19T12:38:27;4.78;;;3.17;;
45962;SDS011;31669;49.892;20.818;2022-08-19T12:43:29;5.25;;;3.20;;
45962;SDS011;31669;49.892;20.818;2022-08-19T12:53:30;6.03;;;3.10;;
45962;SDS011;31669;49.892;20.818;2022-08-19T13:03:34;3.97;;;2.85;;
45962;SDS011;31669;49.892;20.818;2022-08-19T13:13:36;5.90;;;2.63;;
45962;SDS011;31669;49.892;20.818;2022-08-19T13:23:37;11.73;;;3.65;;
45962;SDS011;31669;49.892;20.818;2022-08-19T13:33:57;4.45;;;2.83;;
45962;SDS011;31669;49.892;20.818;2022-08-19T13:43:58;3.28;;;2.28;;
45962;SDS011;31669;49.892;20.818;2022-08-19T13:53:59;5.25;;;3.35;;
45962;SDS011;31669;49.892;20.818;2022-08-19T14:04:01;6.18;;;2.95;;
45962;SDS011;31669;49.892;20.818;2022-08-19T14:14:03;5.13;;;2.67;;
45962;SDS011;31669;49.892;20.818;2022-08-19T14:24:04;4.82;;;2.38;;
